aviador You're here:

PATL Decoded Metar

TATALINA in AK, USA
Report Time2017-10-23 10:55:00
UTC Time2017-10-23 11:22:49
Flight Rules mvfr MVFR
Wind080° at 06 kt
W.Decomp.*RWY 34: 1.2 kt HW 5.9 kt RCW
W.Rank080° ranks 3
Current wind is above 080° avg. (5.2)
Visibility9999 m
Phenomena:Light Snow
Clouds:Broken 018 Hf
Broken 039 Hf
Expected CloudBase > 400 ft AGL from Temp-Dew spread
Ceiling1,800 ft
Temp-10°C (ISA -23)
Dew Point-11°C (92% RH)
AAT-15.3°C
QNH1007 hPa
Density Alt-1,667 ft
Elevation965 ft
Report Wrong Elevation
Raw Report
PATL 231055Z AUTO 08006KT 8SM -SN BKN018 BKN039 M10/M11 A2974=

Extra information for PATL:More info

Metar Taf Metar & Taf Last 4 Metars F.Rules Stats Wind Profile Meteogram Temp Stats Airport Information Weather charts Add Link Nearby VenuesMetar ALERT Operation Metar Decoded Social comments

AIRNAV info for PATL